Time;durP1;ratioP1;P1;durP2;ratioP2;P2;SDS_P1;SDS_P2;PMS_P1;PMS_P2;Temp;Humidity;BMP_temperature;BMP_pressure;BME280_temperature;BME280_humidity;BME280_pressure;Samples;Min_cycle;Max_cycle;Signal;HPM_P1;HPM_P2
2022/02/18 00:00:22;;;;;;;2.42;0.90;;;;;;;5.41;91.31;97746.59;10495867;28;20044;-62
2022/02/18 00:05:28;;;;;;;3.58;1.13;;;;;;;5.42;94.28;97724.25;10503248;28;20040;-60
2022/02/18 00:10:31;;;;;;;4.72;1.00;;;;;;;5.35;100.00;97728.50;10490378;28;20123;-63
2022/02/18 00:15:34;;;;;;;2.67;0.88;;;;;;;5.24;100.00;97733.00;10500391;28;20037;-61
2022/02/18 00:20:39;;;;;;;3.65;0.85;;;;;;;5.23;100.00;97734.00;10498564;28;20756;-64
2022/02/18 00:25:43;;;;;;;3.03;0.90;;;;;;;5.13;100.00;97737.69;10493189;28;20047;-63
2022/02/18 00:30:46;;;;;;;3.20;0.90;;;;;;;4.97;100.00;97741.78;10481443;22;20452;-66
2022/02/18 00:35:50;;;;;;;1.73;0.80;;;;;;;4.91;100.00;97739.69;10354576;28;20425;-67
2022/02/18 00:40:54;;;;;;;3.53;0.90;;;;;;;4.86;100.00;97720.59;10355500;28;20054;-65
2022/02/18 00:45:58;;;;;;;3.90;1.00;;;;;;;4.73;100.00;97728.88;10318609;28;20485;-67
2022/02/18 00:51:04;;;;;;;4.18;1.17;;;;;;;4.63;100.00;97724.41;10329072;28;20529;-67
2022/02/18 00:56:08;;;;;;;3.67;0.77;;;;;;;4.49;100.00;97714.16;10326708;28;20054;-67
2022/02/18 01:01:11;;;;;;;3.22;0.77;;;;;;;4.44;100.00;97716.38;10341619;28;20136;-66
2022/02/18 01:06:17;;;;;;;4.07;1.10;;;;;;;4.28;100.00;97720.47;10314793;28;20044;-65
2022/02/18 01:11:21;;;;;;;2.40;0.85;;;;;;;4.15;100.00;97725.22;10317932;28;20476;-66
2022/02/18 01:16:24;;;;;;;4.57;1.10;;;;;;;4.08;100.00;97734.72;10300700;28;20147;-65
2022/02/18 01:21:29;;;;;;;4.85;1.10;;;;;;;4.00;100.00;97743.41;10303702;28;20546;-67
2022/02/18 01:26:33;;;;;;;4.40;1.00;;;;;;;3.99;100.00;97742.56;10301251;28;20046;-66
2022/02/18 01:31:36;;;;;;;3.65;1.00;;;;;;;4.02;100.00;97741.44;10305559;28;20062;-67
2022/02/18 01:36:41;;;;;;;4.70;1.30;;;;;;;3.97;100.00;97738.38;10303438;28;20142;-65
2022/02/18 01:41:44;;;;;;;3.17;1.02;;;;;;;3.90;100.00;97735.41;10321644;28;20502;-65
2022/02/18 01:46:47;;;;;;;4.25;1.27;;;;;;;3.84;100.00;97735.91;10304136;28;20084;-65
2022/02/18 01:51:52;;;;;;;4.10;1.20;;;;;;;3.76;100.00;97733.97;10310690;28;20072;-66
2022/02/18 01:56:55;;;;;;;4.82;1.10;;;;;;;3.66;100.00;97717.94;10309363;28;20034;-66
2022/02/18 02:01:59;;;;;;;5.05;1.10;;;;;;;3.59;100.00;97721.28;10313646;28;20090;-66
2022/02/18 02:07:07;;;;;;;5.10;1.33;;;;;;;3.52;100.00;97727.16;10309121;28;20052;-66
2022/02/18 02:12:11;;;;;;;4.50;1.17;;;;;;;3.50;100.00;97733.56;10313587;28;20056;-66
2022/02/18 02:17:19;;;;;;;3.95;1.13;;;;;;;3.44;100.00;97716.28;10308420;28;20731;-67
2022/02/18 02:22:26;;;;;;;4.18;1.17;;;;;;;3.38;100.00;97719.50;10286685;28;20078;-66
2022/02/18 02:27:31;;;;;;;11.60;1.17;;;;;;;3.31;100.00;97710.34;10285234;28;20066;-65
2022/02/18 02:32:37;;;;;;;3.92;1.20;;;;;;;3.26;100.00;97704.59;10283485;28;20392;-65
2022/02/18 02:37:42;;;;;;;5.90;1.55;;;;;;;3.20;100.00;97708.63;10286393;28;20050;-68
2022/02/18 02:42:57;;;;;;;5.47;1.30;;;;;;;3.15;100.00;97709.03;10287625;28;20069;-67
2022/02/18 02:48:02;;;;;;;5.40;1.48;;;;;;;3.08;100.00;97708.72;10320767;28;20054;-68
2022/02/18 02:53:28;;;;;;;3.88;1.15;;;;;;;3.00;100.00;97713.81;10305199;28;20057;-67
2022/02/18 02:58:31;;;;;;;4.18;1.20;;;;;;;2.92;100.00;97719.81;10310435;28;20038;-67
2022/02/18 03:03:39;;;;;;;5.35;1.20;;;;;;;2.88;100.00;97720.22;10303990;28;20063;-66
2022/02/18 03:08:44;;;;;;;3.50;1.20;;;;;;;2.89;100.00;97724.53;10307176;28;20442;-67
2022/02/18 03:14:06;;;;;;;5.10;1.30;;;;;;;2.85;100.00;97717.81;10314784;28;20051;-66
2022/02/18 03:19:14;;;;;;;5.30;1.42;;;;;;;2.85;100.00;97717.81;10311492;28;20042;-68
2022/02/18 03:24:21;;;;;;;4.72;1.15;;;;;;;2.82;100.00;97723.38;10314632;28;20070;-67
2022/02/18 03:29:26;;;;;;;4.80;1.20;;;;;;;2.83;100.00;97731.22;10322839;28;20042;-66
2022/02/18 03:35:28;;;;;;;5.78;1.50;;;;;;;2.77;100.00;97729.09;10333877;28;20058;-68
2022/02/18 03:40:36;;;;;;;6.50;1.40;;;;;;;2.81;100.00;97738.50;10377358;28;20126;-68
2022/02/18 03:45:42;;;;;;;4.20;1.27;;;;;;;2.85;100.00;97734.59;10374450;28;20039;-68
2022/02/18 03:50:58;;;;;;;7.75;1.40;;;;;;;2.91;100.00;97739.41;10357877;28;20053;-67
2022/02/18 03:56:02;;;;;;;4.60;1.20;;;;;;;2.95;100.00;97747.97;10303606;28;20077;-67
2022/02/18 04:01:11;;;;;;;5.53;1.30;;;;;;;2.99;100.00;97743.22;10313525;28;20046;-67
2022/02/18 04:06:14;;;;;;;5.53;1.48;;;;;;;3.03;100.00;97753.50;10307200;28;20451;-67
2022/02/18 04:11:25;;;;;;;4.90;1.40;;;;;;;3.10;100.00;97755.66;10317101;28;20745;-67
2022/02/18 04:16:28;;;;;;;5.95;1.48;;;;;;;3.16;100.00;97761.28;10307787;28;20042;-67
2022/02/18 04:21:43;;;;;;;7.50;1.40;;;;;;;3.26;100.00;97750.69;10342251;28;20108;-67
2022/02/18 04:26:58;;;;;;;5.43;1.25;;;;;;;3.31;100.00;97743.16;10310901;28;20088;-66
2022/02/18 04:32:01;;;;;;;6.20;1.30;;;;;;;3.38;100.00;97768.25;10295740;28;20050;-69
2022/02/18 04:37:04;;;;;;;4.65;1.20;;;;;;;3.39;100.00;97748.66;10286171;28;20051;-68
2022/02/18 04:42:09;;;;;;;8.15;1.70;;;;;;;3.46;100.00;97745.47;10290097;28;20415;-66
2022/02/18 04:47:12;;;;;;;6.60;1.55;;;;;;;3.58;100.00;97757.72;10285293;28;20057;-66
2022/02/18 04:52:16;;;;;;;6.20;1.50;;;;;;;3.72;100.00;97760.97;10294547;28;20074;-66
2022/02/18 04:57:33;;;;;;;5.13;1.30;;;;;;;3.91;100.00;97752.22;10294316;28;20042;-67
2022/02/18 05:02:36;;;;;;;5.88;1.48;;;;;;;4.00;100.00;97738.94;10300926;28;20121;-66
2022/02/18 05:07:40;;;;;;;5.82;1.45;;;;;;;4.04;100.00;97736.00;10294642;28;20462;-67
2022/02/18 05:12:44;;;;;;;5.75;1.45;;;;;;;4.05;100.00;97735.03;10299703;28;20039;-66
2022/02/18 05:17:48;;;;;;;5.63;1.17;;;;;;;4.06;100.00;97734.03;10301260;28;20054;-66
2022/02/18 05:22:52;;;;;;;7.43;1.60;;;;;;;4.07;100.00;97746.34;10298624;28;20442;-66
2022/02/18 05:27:56;;;;;;;6.63;1.55;;;;;;;4.10;100.00;97733.63;10298866;28;20073;-68
2022/02/18 05:32:59;;;;;;;8.02;2.08;;;;;;;4.11;100.00;97721.13;10300099;28;20058;-67
2022/02/18 05:38:03;;;;;;;6.03;1.58;;;;;;;4.15;100.00;97704.72;10297598;28;20080;-66
2022/02/18 05:43:07;;;;;;;5.25;1.40;;;;;;;4.20;100.00;97709.63;10299019;28;20133;-67
2022/02/18 05:48:10;;;;;;;6.28;1.73;;;;;;;4.13;100.00;97697.84;10299339;28;20053;-66
2022/02/18 05:53:13;;;;;;;6.68;1.80;;;;;;;4.08;100.00;97692.06;10305686;28;20066;-66
2022/02/18 05:58:18;;;;;;;6.18;1.75;;;;;;;4.06;100.00;97697.56;10303955;28;20074;-65
2022/02/18 06:03:21;;;;;;;6.93;1.75;;;;;;;4.03;100.00;97686.34;10308273;28;20487;-65
2022/02/18 06:08:25;;;;;;;6.45;1.88;;;;;;;3.93;100.00;97680.97;10308451;28;20105;-66
2022/02/18 06:13:30;;;;;;;6.80;1.67;;;;;;;3.85;100.00;97676.31;10311087;28;20058;-66
2022/02/18 06:18:33;;;;;;;6.30;1.65;;;;;;;3.78;100.00;97677.88;10316286;28;20047;-66
2022/02/18 06:23:36;;;;;;;8.02;1.70;;;;;;;3.73;100.00;97664.09;10320302;28;20066;-66
2022/02/18 06:28:41;;;;;;;6.63;1.95;;;;;;;3.67;100.00;97661.03;10321065;28;20042;-66
2022/02/18 06:33:46;;;;;;;5.57;1.70;;;;;;;3.60;100.00;97654.53;10296076;28;20375;-67
2022/02/18 06:38:50;;;;;;;7.70;1.95;;;;;;;3.59;100.00;97663.50;10301159;28;20112;-66
2022/02/18 06:43:55;;;;;;;6.68;1.60;;;;;;;3.60;100.00;97664.34;10317964;22;20517;-62
2022/02/18 06:48:58;;;;;;;7.03;1.92;;;;;;;3.59;100.00;97658.19;10340535;28;20061;-61
2022/02/18 06:54:01;;;;;;;6.97;1.73;;;;;;;3.65;100.00;97662.13;10328061;28;20057;-63
2022/02/18 06:59:26;;;;;;;6.47;1.85;;;;;;;3.72;100.00;97651.75;10297004;28;20453;-63
2022/02/18 07:04:29;;;;;;;8.15;1.92;;;;;;;3.76;100.00;97637.19;10297162;28;20426;-62
2022/02/18 07:09:32;;;;;;;8.60;1.95;;;;;;;3.82;100.00;97636.66;10300640;28;20043;-63
2022/02/18 07:14:45;;;;;;;10.30;1.77;;;;;;;3.87;100.00;97638.91;10303066;28;20055;-62
2022/02/18 07:19:54;;;;;;;8.48;2.15;;;;;;;3.92;100.00;97637.50;10314976;28;20493;-62
2022/02/18 07:25:00;;;;;;;8.27;1.98;;;;;;;3.96;100.00;97633.56;10317923;28;20038;-63
2022/02/18 07:30:06;;;;;;;6.53;2.05;;;;;;;4.04;100.00;97626.72;10321610;28;20042;-61
2022/02/18 07:35:09;;;;;;;6.70;2.00;;;;;;;4.10;100.00;97607.47;10306050;28;20426;-63
2022/02/18 07:40:13;;;;;;;9.98;2.20;;;;;;;4.15;100.00;97591.94;10308823;28;20050;-64
2022/02/18 07:45:19;;;;;;;8.70;2.00;;;;;;;4.24;100.00;97545.75;10304888;28;20054;-60
2022/02/18 07:50:28;;;;;;;8.55;1.88;;;;;;;4.33;100.00;97584.06;10320001;28;20502;-59
2022/02/18 07:55:31;;;;;;;7.65;2.05;;;;;;;4.43;100.00;97565.34;10308343;28;20065;-59
2022/02/18 08:00:38;;;;;;;7.00;1.90;;;;;;;4.53;100.00;97562.66;10307333;28;20043;-56
2022/02/18 08:05:41;;;;;;;8.18;1.95;;;;;;;4.63;100.00;97540.31;10307517;28;20050;-58
2022/02/18 08:10:44;;;;;;;6.88;2.20;;;;;;;4.75;100.00;97521.47;10314730;28;20038;-59
2022/02/18 08:15:49;;;;;;;8.82;1.98;;;;;;;4.87;100.00;97520.28;10312147;28;20062;-58
2022/02/18 08:20:55;;;;;;;8.07;2.20;;;;;;;4.98;100.00;97489.88;10320113;28;20075;-59
2022/02/18 08:25:59;;;;;;;8.32;2.10;;;;;;;5.10;100.00;97479.84;10319162;28;20050;-63
2022/02/18 08:31:06;;;;;;;10.43;2.50;;;;;;;5.23;100.00;97480.31;10322103;28;20054;-61
2022/02/18 08:36:10;;;;;;;10.60;2.50;;;;;;;5.34;100.00;97457.06;10323869;28;20050;-62
2022/02/18 08:41:13;;;;;;;9.77;2.55;;;;;;;5.45;100.00;97443.50;10332850;28;20045;-63
2022/02/18 08:46:20;;;;;;;10.77;2.53;;;;;;;5.59;100.00;97438.56;10311050;28;20046;-64
2022/02/18 08:51:24;;;;;;;11.13;2.80;;;;;;;5.68;100.00;97427.81;10304915;28;20577;-63
2022/02/18 08:56:28;;;;;;;12.25;2.65;;;;;;;5.78;100.00;97411.69;10290051;28;20508;-63
2022/02/18 09:01:33;;;;;;;11.60;2.85;;;;;;;5.86;100.00;97414.41;10295438;28;21714;-63
2022/02/18 09:06:45;;;;;;;11.75;2.67;;;;;;;5.93;100.00;97419.16;10290843;28;20745;-62
2022/02/18 09:11:49;;;;;;;13.23;2.50;;;;;;;5.99;100.00;97408.69;10300770;28;20866;-63
2022/02/18 09:16:53;;;;;;;9.88;2.60;;;;;;;6.03;100.00;97397.66;10290911;28;20043;-63
2022/02/18 09:21:56;;;;;;;13.60;2.83;;;;;;;6.03;100.00;97379.81;10299578;28;20058;-63
2022/02/18 09:27:00;;;;;;;11.45;2.90;;;;;;;6.06;100.00;97365.28;10298779;28;20117;-64
2022/02/18 09:32:05;;;;;;;12.80;2.72;;;;;;;6.06;100.00;97343.88;10301357;28;20141;-62
2022/02/18 09:37:14;;;;;;;17.17;3.17;;;;;;;6.05;100.00;97343.06;10294255;28;20117;-63
2022/02/18 09:42:20;;;;;;;16.80;3.22;;;;;;;6.06;100.00;97331.34;10300879;28;20101;-63
2022/02/18 09:47:26;;;;;;;13.93;3.15;;;;;;;6.05;100.00;97321.66;10302287;28;20062;-63
2022/02/18 09:52:29;;;;;;;17.00;3.75;;;;;;;6.07;100.00;97314.31;10298333;28;20042;-63
2022/02/18 09:57:35;;;;;;;15.32;3.65;;;;;;;6.06;100.00;97312.63;10299431;28;20070;-62
2022/02/18 10:02:59;;;;;;;14.57;3.13;;;;;;;6.12;100.00;97295.94;10304932;28;20034;-62
2022/02/18 10:08:09;;;;;;;14.00;3.47;;;;;;;6.14;100.00;97285.09;10302823;28;20108;-62
2022/02/18 10:13:31;;;;;;;12.75;3.30;;;;;;;6.16;100.00;97259.03;10306991;28;20674;-64
2022/02/18 10:18:52;;;;;;;16.83;3.90;;;;;;;6.19;100.00;97256.03;10299919;28;20043;-61
2022/02/18 10:24:07;;;;;;;16.45;4.05;;;;;;;6.24;100.00;97239.50;10305018;28;20506;-63
2022/02/18 10:29:18;;;;;;;15.23;3.38;;;;;;;6.32;100.00;97204.75;10321533;28;20038;-64
2022/02/18 10:34:23;;;;;;;16.48;3.42;;;;;;;6.42;100.00;97189.38;10309923;28;20133;-63
2022/02/18 10:39:29;;;;;;;18.65;3.47;;;;;;;6.53;100.00;97174.00;10306556;28;20049;-61
2022/02/18 10:44:38;;;;;;;17.05;3.67;;;;;;;6.65;100.00;97151.25;10280148;28;20150;-64
2022/02/18 10:49:47;;;;;;;15.50;3.28;;;;;;;6.70;100.00;97132.84;10283290;28;20042;-62
2022/02/18 10:54:50;;;;;;;14.40;3.45;;;;;;;6.79;100.00;97109.59;10288755;28;20375;-63
2022/02/18 10:59:55;;;;;;;12.80;3.13;;;;;;;6.90;100.00;97078.94;10284714;28;20388;-62
2022/02/18 11:05:20;;;;;;;17.30;3.65;;;;;;;6.99;100.00;97061.88;10290215;28;20165;-63
2022/02/18 11:10:30;;;;;;;11.88;2.97;;;;;;;7.00;100.00;97052.81;10296930;28;20078;-61
2022/02/18 11:15:36;;;;;;;13.27;3.30;;;;;;;7.06;100.00;97040.56;10295213;28;20038;-62
2022/02/18 11:20:45;;;;;;;14.95;3.25;;;;;;;7.11;100.00;97042.75;10300792;28;20054;-59
2022/02/18 11:25:49;;;;;;;16.50;3.67;;;;;;;7.15;100.00;97028.00;10299177;28;20455;-60
2022/02/18 11:30:53;;;;;;;10.57;2.58;;;;;;;7.22;100.00;97010.25;10309746;28;20034;-57
2022/02/18 11:36:13;;;;;;;12.52;2.75;;;;;;;7.27;100.00;96989.09;10307482;28;20046;-55
2022/02/18 11:41:31;;;;;;;9.10;2.45;;;;;;;7.36;100.00;96979.19;10308076;28;20049;-61
2022/02/18 11:46:34;;;;;;;7.47;2.20;;;;;;;7.37;100.00;96979.00;10303063;28;20134;-57
2022/02/18 11:51:43;;;;;;;9.60;2.10;;;;;;;7.43;100.00;96963.22;10310526;28;20030;-57
2022/02/18 11:56:53;;;;;;;9.40;2.15;;;;;;;7.47;100.00;96961.84;10310473;28;20070;-59
2022/02/18 12:02:08;;;;;;;6.18;1.70;;;;;;;7.47;100.00;96943.09;10304638;28;20113;-56
2022/02/18 12:07:28;;;;;;;5.28;1.83;;;;;;;7.47;100.00;96938.59;10311725;28;20077;-57
2022/02/18 12:12:34;;;;;;;3.85;1.25;;;;;;;7.46;100.00;96915.47;10315543;28;20067;-56
2022/02/18 12:17:41;;;;;;;6.32;1.70;;;;;;;7.43;100.00;96906.97;10310731;28;20046;-60
2022/02/18 12:22:46;;;;;;;2.97;1.02;;;;;;;7.38;100.00;96894.13;10312498;28;20078;-57
2022/02/18 12:27:51;;;;;;;4.00;1.33;;;;;;;7.32;100.00;96882.28;10310653;28;20451;-58
2022/02/18 12:32:57;;;;;;;2.30;1.00;;;;;;;7.28;100.00;96872.91;10303942;28;20596;-58
2022/02/18 12:38:06;;;;;;;2.60;1.00;;;;;;;7.28;100.00;96846.13;10301242;28;20105;-56
2022/02/18 12:43:16;;;;;;;3.65;1.05;;;;;;;7.30;100.00;96828.03;10293583;28;20055;-59
2022/02/18 12:48:40;;;;;;;2.92;1.20;;;;;;;7.37;100.00;96818.25;10412664;23;20064;-79
2022/02/18 12:53:47;;;;;;;3.80;2.10;;;;;;;7.45;100.00;96787.88;10410357;28;20737;-79
2022/02/18 12:58:53;;;;;;;2.25;0.90;;;;;;;7.62;100.00;96779.69;10401345;28;20045;-79
2022/02/18 13:03:56;;;;;;;1.77;0.80;;;;;;;7.79;100.00;96758.91;10403143;28;20060;-79
2022/02/18 13:09:06;;;;;;;1.95;0.73;;;;;;;7.94;100.00;96743.63;10402924;28;20139;-79
2022/02/18 13:14:11;;;;;;;1.05;0.50;;;;;;;8.04;100.00;96731.81;10401469;28;20513;-79
2022/02/18 13:19:14;;;;;;;1.42;0.60;;;;;;;8.16;100.00;96730.31;10407604;28;20037;-79
2022/02/18 13:24:27;;;;;;;3.47;1.00;;;;;;;8.28;100.00;96718.06;10401608;28;20140;-80
2022/02/18 13:29:42;;;;;;;3.47;0.95;;;;;;;8.35;100.00;96709.25;10401389;28;20778;-80
2022/02/18 13:34:49;;;;;;;2.40;0.90;;;;;;;8.39;100.00;96679.16;10402336;28;20065;-80
2022/02/18 13:39:55;;;;;;;2.00;0.80;;;;;;;8.41;100.00;96687.88;10404944;28;20046;-80
2022/02/18 13:45:01;;;;;;;3.42;1.10;;;;;;;8.47;100.00;96665.66;10405120;28;20053;-79
2022/02/18 13:50:06;;;;;;;4.07;1.17;;;;;;;8.56;100.00;96646.75;10418833;28;20041;-83
2022/02/18 13:55:12;;;;;;;3.15;1.13;;;;;;;8.67;100.00;96629.28;10429600;28;20049;-82
2022/02/18 14:00:34;;;;;;;2.50;0.90;;;;;;;8.80;100.00;96599.88;10397670;28;20067;-82
2022/02/18 14:05:37;;;;;;;5.18;1.20;;;;;;;8.92;100.00;96584.06;10394603;28;20045;-81
2022/02/18 14:10:44;;;;;;;2.28;1.10;;;;;;;9.04;100.00;96571.75;10396122;28;20124;-79
2022/02/18 14:15:47;;;;;;;3.53;0.93;;;;;;;9.18;100.00;96556.53;10387004;28;20050;-79
2022/02/18 14:20:59;;;;;;;3.70;1.30;;;;;;;9.27;100.00;96553.66;10405317;28;20052;-83
2022/02/18 14:26:13;;;;;;;2.70;0.98;;;;;;;9.39;100.00;96549.38;10404070;28;20057;-83
2022/02/18 14:31:18;;;;;;;2.47;0.90;;;;;;;9.53;100.00;96526.91;10408092;28;20041;-83
2022/02/18 14:36:33;;;;;;;2.65;1.10;;;;;;;9.64;100.00;96517.41;10394170;28;20041;-83
2022/02/18 14:42:01;;;;;;;3.55;0.80;;;;;;;9.70;100.00;96502.38;10409070;28;20040;-84
2022/02/18 14:47:05;;;;;;;2.83;0.90;;;;;;;9.85;100.00;96504.88;10387963;28;20064;-84
2022/02/18 14:52:09;;;;;;;2.22;0.90;;;;;;;9.95;100.00;96501.78;10409046;28;20048;-83
2022/02/18 14:57:15;;;;;;;1.67;0.85;;;;;;;10.03;100.00;96488.97;10423650;28;20025;-78
2022/02/18 15:02:19;;;;;;;4.78;1.08;;;;;;;10.12;100.00;96478.81;10431898;28;20137;-80
2022/02/18 15:07:23;;;;;;;1.52;0.90;;;;;;;10.21;100.00;96484.84;10409511;28;20049;-78
2022/02/18 15:12:28;;;;;;;1.65;0.63;;;;;;;10.37;100.00;96451.28;10388932;28;20720;-78
2022/02/18 15:17:31;;;;;;;2.25;0.90;;;;;;;10.42;100.00;96435.34;10407506;28;20549;-81
2022/02/18 15:22:34;;;;;;;1.67;0.63;;;;;;;10.48;100.00;96418.38;10407453;28;20441;-81
2022/02/18 15:27:38;;;;;;;1.58;0.70;;;;;;;10.57;100.00;96397.47;10408515;28;20057;-79
2022/02/18 15:38:02;;;;;;;2.00;0.80;;;;;;;10.57;100.00;96356.22;10412672;28;20391;-82
2022/02/18 15:43:10;;;;;;;1.13;0.70;;;;;;;10.68;100.00;96342.09;10405406;28;20046;-82
2022/02/18 15:48:13;;;;;;;1.40;0.68;;;;;;;10.71;100.00;96320.13;10406860;28;20053;-82
2022/02/18 15:53:16;;;;;;;1.77;0.70;;;;;;;10.88;100.00;96306.16;10421285;28;20041;-82
2022/02/18 15:58:27;;;;;;;2.53;0.50;;;;;;;11.13;100.00;96270.38;10445392;28;20121;-80
2022/02/18 16:03:30;;;;;;;0.82;0.40;;;;;;;11.34;100.00;96236.84;10425304;28;20057;-80
2022/02/18 16:08:34;;;;;;;1.27;0.60;;;;;;;11.45;100.00;96236.13;10424414;28;20695;-81
2022/02/18 16:13:39;;;;;;;1.63;0.57;;;;;;;11.45;100.00;96232.63;10421834;28;20041;-82
2022/02/18 16:18:42;;;;;;;1.35;0.70;;;;;;;11.50;100.00;96212.03;10418872;28;20108;-79
2022/02/18 16:23:45;;;;;;;1.40;0.60;;;;;;;11.54;100.00;96190.84;10419882;28;20048;-81
2022/02/18 16:28:49;;;;;;;1.45;0.55;;;;;;;11.55;100.00;96192.50;10414542;28;20498;-80
2022/02/18 16:33:53;;;;;;;2.67;0.60;;;;;;;11.48;100.00;96187.16;10413734;28;20612;-79
2022/02/18 16:38:58;;;;;;;1.02;0.50;;;;;;;11.47;100.00;96195.44;10415445;28;20048;-80
2022/02/18 16:44:05;;;;;;;1.10;0.52;;;;;;;11.38;100.00;96208.41;10410605;28;20046;-80
2022/02/18 16:49:10;;;;;;;3.10;0.60;;;;;;;11.34;100.00;96213.44;10414861;28;20406;-79
2022/02/18 16:54:13;;;;;;;1.17;0.52;;;;;;;11.34;100.00;96202.63;10415217;28;20042;-80
2022/02/18 16:59:17;;;;;;;0.93;0.50;;;;;;;11.45;100.00;96182.19;10414478;28;20528;-81
2022/02/18 17:04:21;;;;;;;3.30;0.65;;;;;;;11.54;100.00;96190.84;10411114;28;20045;-80
2022/02/18 17:09:25;;;;;;;1.23;0.43;;;;;;;11.63;100.00;96157.13;10428461;28;20068;-80
2022/02/18 17:14:31;;;;;;;1.45;0.77;;;;;;;11.68;100.00;96160.00;10406492;28;20076;-81
2022/02/18 17:19:34;;;;;;;1.77;0.70;;;;;;;11.66;100.00;96147.75;10411096;28;20075;-80
2022/02/18 17:24:40;;;;;;;1.42;0.50;;;;;;;11.79;100.00;96160.28;10404230;28;20416;-81
2022/02/18 17:29:44;;;;;;;0.75;0.47;;;;;;;11.71;100.00;96146.03;10429840;28;20056;-80
2022/02/18 17:34:48;;;;;;;1.00;0.50;;;;;;;11.85;100.00;96152.13;10412529;28;20065;-81
2022/02/18 17:39:52;;;;;;;0.38;0.38;;;;;;;11.88;100.00;96158.94;10413917;28;20045;-80
2022/02/18 17:44:56;;;;;;;0.40;0.30;;;;;;;11.94;100.00;96130.22;10408103;28;20064;-81
2022/02/18 17:50:00;;;;;;;0.30;0.30;;;;;;;11.98;100.00;96126.06;10406475;28;20048;-79
2022/02/18 17:55:04;;;;;;;1.02;0.40;;;;;;;11.98;100.00;96137.66;10420870;28;20117;-80
2022/02/18 18:00:10;;;;;;;1.42;0.30;;;;;;;12.08;100.00;96114.72;10406993;28;20091;-82
2022/02/18 18:05:16;;;;;;;0.63;0.30;;;;;;;12.13;100.00;96112.16;10401629;28;20556;-79
2022/02/18 18:10:19;;;;;;;1.83;0.40;;;;;;;12.07;100.00;96113.91;10405508;28;20046;-81
2022/02/18 18:15:23;;;;;;;0.38;0.30;;;;;;;12.08;100.00;96131.75;10410483;28;20046;-82
2022/02/18 18:20:26;;;;;;;0.65;0.30;;;;;;;11.92;100.00;96133.16;10413505;28;20589;-81
2022/02/18 18:25:30;;;;;;;0.50;0.40;;;;;;;11.90;100.00;96140.66;10416798;28;20045;-83
2022/02/18 18:30:34;;;;;;;5.95;0.65;;;;;;;11.38;100.00;96214.63;10436868;28;20422;-80
2022/02/18 18:35:38;;;;;;;2.47;0.30;;;;;;;9.30;100.00;96304.22;10414571;28;20413;-83
2022/02/18 18:40:41;;;;;;;0.10;0.10;;;;;;;8.87;100.00;96345.69;10419335;28;20065;-82
2022/02/18 18:45:46;;;;;;;0.98;0.20;;;;;;;8.68;100.00;96265.91;10420256;28;20053;-83
2022/02/18 18:50:48;;;;;;;1.02;0.20;;;;;;;8.81;100.00;96233.72;10421190;28;20045;-82
2022/02/18 18:55:52;;;;;;;0.98;0.20;;;;;;;8.71;100.00;96270.88;10418545;28;20045;-80
2022/02/18 19:00:56;;;;;;;0.93;0.30;;;;;;;8.76;100.00;96260.38;10416250;28;20041;-81
2022/02/18 19:06:00;;;;;;;0.65;0.30;;;;;;;8.96;100.00;96271.13;10418607;28;20041;-81
2022/02/18 19:11:03;;;;;;;0.52;0.22;;;;;;;8.89;100.00;96255.00;10441086;28;20068;-81
2022/02/18 19:16:10;;;;;;;0.60;0.40;;;;;;;8.75;100.00;96272.13;10416828;28;20420;-81
2022/02/18 19:21:13;;;;;;;0.30;0.20;;;;;;;8.85;100.00;96272.56;10420104;28;20080;-82
2022/02/18 19:26:17;;;;;;;0.73;0.32;;;;;;;8.82;100.00;96272.13;10414807;28;20053;-82
2022/02/18 19:31:22;;;;;;;2.38;0.20;;;;;;;8.90;100.00;96285.38;10414871;28;20071;-80
2022/02/18 19:36:25;;;;;;;0.65;0.20;;;;;;;8.79;100.00;96310.94;10419254;28;20080;-83
2022/02/18 19:41:28;;;;;;;0.40;0.20;;;;;;;8.81;100.00;96308.88;10424849;28;20033;-83
2022/02/18 19:46:36;;;;;;;0.80;0.40;;;;;;;8.91;90.87;96313.88;10422372;28;20109;-81
2022/02/18 19:51:39;;;;;;;0.60;0.30;;;;;;;8.96;82.91;96321.31;10427938;22;20045;-66
2022/02/18 19:56:42;;;;;;;0.63;0.35;;;;;;;8.89;87.76;96337.41;10350212;28;20052;-65
2022/02/18 20:01:48;;;;;;;1.10;0.50;;;;;;;9.02;75.03;96379.59;10329459;28;20048;-65
2022/02/18 20:06:51;;;;;;;1.77;0.40;;;;;;;8.78;79.75;96392.50;10343735;28;20050;-65
2022/02/18 20:11:57;;;;;;;0.93;0.52;;;;;;;8.69;83.05;96418.72;10349700;28;20145;-64
2022/02/18 20:17:02;;;;;;;1.50;0.65;;;;;;;8.55;82.86;96401.69;10349238;28;20125;-66
2022/02/18 20:22:05;;;;;;;1.88;0.60;;;;;;;8.63;73.20;96431.06;10349691;28;20042;-65
2022/02/18 20:27:10;;;;;;;1.50;0.70;;;;;;;8.43;80.21;96441.66;10353843;28;20129;-65
2022/02/18 20:32:15;;;;;;;3.08;0.80;;;;;;;8.41;74.34;96445.56;10351960;28;20038;-65
2022/02/18 20:37:18;;;;;;;2.10;0.75;;;;;;;8.48;71.78;96423.13;10347121;28;20045;-63
2022/02/18 20:42:21;;;;;;;1.98;0.60;;;;;;;8.42;71.52;96449.88;10353415;28;20034;-65
2022/02/18 20:47:26;;;;;;;2.03;0.60;;;;;;;8.27;75.83;96447.31;10359586;28;20041;-64
2022/02/18 20:52:29;;;;;;;3.28;0.90;;;;;;;8.33;71.62;96476.06;10322109;28;20053;-61
2022/02/18 20:57:32;;;;;;;1.75;0.65;;;;;;;8.35;69.90;96483.91;10330958;28;20042;-64
2022/02/18 21:02:37;;;;;;;2.65;0.80;;;;;;;8.27;73.56;96507.16;10342746;28;20042;-64
2022/02/18 21:07:40;;;;;;;2.05;0.75;;;;;;;8.33;70.04;96505.56;10348003;28;20053;-65
2022/02/18 21:12:44;;;;;;;2.50;0.90;;;;;;;8.25;72.16;96501.16;10349055;28;20049;-65
2022/02/18 21:17:50;;;;;;;2.65;0.80;;;;;;;8.30;67.53;96533.59;10323750;28;20053;-64
2022/02/18 21:22:54;;;;;;;1.63;0.63;;;;;;;8.33;65.82;96597.59;10332776;28;20047;-63
2022/02/18 21:28:00;;;;;;;2.03;0.80;;;;;;;8.29;65.99;96574.84;10318367;28;20579;-65
2022/02/18 21:33:05;;;;;;;4.05;0.95;;;;;;;8.09;72.81;96565.78;10334821;28;20537;-59
2022/02/18 21:38:08;;;;;;;3.03;0.85;;;;;;;7.76;83.63;96623.38;10340162;28;20133;-62
2022/02/18 21:43:11;;;;;;;3.15;0.98;;;;;;;7.45;92.48;96637.03;10335846;28;20045;-65
2022/02/18 21:48:15;;;;;;;5.13;1.10;;;;;;;7.32;99.30;96625.13;10334717;28;20570;-66
2022/02/18 21:53:18;;;;;;;6.15;1.00;;;;;;;7.25;100.00;96619.66;10340479;28;20148;-65
2022/02/18 21:58:21;;;;;;;4.68;1.10;;;;;;;7.09;100.00;96614.47;10319436;28;20533;-65
2022/02/18 22:03:26;;;;;;;4.15;1.02;;;;;;;7.03;100.00;96618.72;10326493;28;20424;-65
2022/02/18 22:08:29;;;;;;;3.85;1.15;;;;;;;7.27;82.31;96634.72;10328212;28;20485;-64
2022/02/18 22:13:33;;;;;;;4.47;1.02;;;;;;;7.33;75.06;96683.03;10344957;28;20133;-66
2022/02/18 22:18:37;;;;;;;4.13;1.23;;;;;;;7.31;75.94;96668.97;10345049;28;20508;-65
2022/02/18 22:23:40;;;;;;;3.17;1.00;;;;;;;7.27;79.39;96674.91;10345218;28;20452;-66
2022/02/18 22:28:44;;;;;;;3.45;1.00;;;;;;;7.31;73.00;96647.56;10332398;28;20050;-62
2022/02/18 22:34:09;;;;;;;2.40;1.00;;;;;;;7.07;77.40;96684.28;10349784;28;20050;-65
2022/02/18 22:39:14;;;;;;;4.15;1.10;;;;;;;7.01;77.97;96698.38;10371223;28;20065;-64
2022/02/18 22:44:17;;;;;;;8.05;1.67;;;;;;;7.20;68.11;96701.56;10353649;28;20217;-65
2022/02/18 22:49:23;;;;;;;3.85;1.10;;;;;;;7.14;64.73;96739.78;10353648;28;20047;-65
2022/02/18 22:54:26;;;;;;;3.47;1.10;;;;;;;7.18;65.20;96727.69;10313031;28;20457;-64
2022/02/18 22:59:29;;;;;;;8.25;1.10;;;;;;;7.22;61.11;96734.38;10329087;28;20092;-65
2022/02/18 23:04:34;;;;;;;4.13;1.20;;;;;;;7.02;64.56;96728.69;10329908;28;20043;-65
2022/02/18 23:09:37;;;;;;;5.78;1.17;;;;;;;6.93;65.59;96824.28;10335210;28;20417;-64
2022/02/18 23:14:41;;;;;;;4.80;1.10;;;;;;;6.99;61.18;96810.22;10332824;28;20355;-64
2022/02/18 23:19:46;;;;;;;5.55;1.20;;;;;;;6.79;62.68;96753.63;10333816;28;20127;-64
2022/02/18 23:24:49;;;;;;;4.50;1.10;;;;;;;6.77;64.04;96777.88;10336458;28;20050;-64
2022/02/18 23:29:53;;;;;;;3.60;1.20;;;;;;;6.61;66.33;96778.00;10343717;28;20086;-60
2022/02/18 23:34:57;;;;;;;3.15;1.17;;;;;;;6.63;64.76;96784.00;10339314;28;20125;-65
2022/02/18 23:40:00;;;;;;;4.90;1.10;;;;;;;6.58;62.45;96776.50;10347805;28;20046;-65
2022/02/18 23:45:04;;;;;;;5.03;1.15;;;;;;;6.74;58.31;96814.88;10348536;28;20073;-62